sensor_id;sensor_type;location;lat;lon;timestamp;P1;durP1;ratioP1;P2;durP2;ratioP2
35188;SDS011;21762;54.480;18.556;2022-10-18T00:00:58;6.13;;;4.00;;
35188;SDS011;21762;54.480;18.556;2022-10-18T00:03:26;7.47;;;4.05;;
35188;SDS011;21762;54.480;18.556;2022-10-18T00:05:54;8.63;;;3.33;;
35188;SDS011;21762;54.480;18.556;2022-10-18T00:08:22;4.20;;;3.55;;
35188;SDS011;21762;54.480;18.556;2022-10-18T00:10:52;6.22;;;3.00;;
35188;SDS011;21762;54.480;18.556;2022-10-18T00:13:20;8.85;;;3.35;;
35188;SDS011;21762;54.480;18.556;2022-10-18T00:15:48;4.75;;;2.78;;
35188;SDS011;21762;54.480;18.556;2022-10-18T00:18:17;3.60;;;2.60;;
35188;SDS011;21762;54.480;18.556;2022-10-18T00:20:54;3.40;;;2.45;;
35188;SDS011;21762;54.480;18.556;2022-10-18T00:23:24;4.90;;;2.20;;
35188;SDS011;21762;54.480;18.556;2022-10-18T00:26:01;2.50;;;2.28;;
35188;SDS011;21762;54.480;18.556;2022-10-18T00:28:30;2.10;;;1.90;;
35188;SDS011;21762;54.480;18.556;2022-10-18T00:31:07;3.50;;;1.80;;
35188;SDS011;21762;54.480;18.556;2022-10-18T00:33:37;4.00;;;1.58;;
35188;SDS011;21762;54.480;18.556;2022-10-18T00:36:05;2.53;;;1.92;;
35188;SDS011;21762;54.480;18.556;2022-10-18T00:38:33;3.58;;;1.70;;
35188;SDS011;21762;54.480;18.556;2022-10-18T00:41:03;5.78;;;1.60;;
35188;SDS011;21762;54.480;18.556;2022-10-18T00:43:48;2.13;;;1.85;;
35188;SDS011;21762;54.480;18.556;2022-10-18T00:46:17;1.80;;;1.63;;
35188;SDS011;21762;54.480;18.556;2022-10-18T00:48:45;4.10;;;1.73;;
35188;SDS011;21762;54.480;18.556;2022-10-18T00:51:14;1.75;;;1.42;;
35188;SDS011;21762;54.480;18.556;2022-10-18T00:53:43;2.95;;;1.45;;
35188;SDS011;21762;54.480;18.556;2022-10-18T00:56:12;1.58;;;1.35;;
35188;SDS011;21762;54.480;18.556;2022-10-18T00:58:41;2.65;;;1.40;;
35188;SDS011;21762;54.480;18.556;2022-10-18T01:01:09;1.88;;;1.63;;
35188;SDS011;21762;54.480;18.556;2022-10-18T01:03:37;2.22;;;1.20;;
35188;SDS011;21762;54.480;18.556;2022-10-18T01:06:06;4.35;;;1.80;;
35188;SDS011;21762;54.480;18.556;2022-10-18T01:11:27;2.20;;;1.55;;
35188;SDS011;21762;54.480;18.556;2022-10-18T01:14:06;4.30;;;1.42;;
35188;SDS011;21762;54.480;18.556;2022-10-18T01:16:46;2.50;;;1.35;;
35188;SDS011;21762;54.480;18.556;2022-10-18T01:19:32;4.25;;;2.03;;
35188;SDS011;21762;54.480;18.556;2022-10-18T01:22:11;3.10;;;1.35;;
35188;SDS011;21762;54.480;18.556;2022-10-18T01:27:27;2.08;;;1.25;;
35188;SDS011;21762;54.480;18.556;2022-10-18T01:33:05;2.15;;;1.30;;
35188;SDS011;21762;54.480;18.556;2022-10-18T01:35:39;2.70;;;1.50;;
35188;SDS011;21762;54.480;18.556;2022-10-18T01:38:11;2.40;;;1.33;;
35188;SDS011;21762;54.480;18.556;2022-10-18T01:40:42;1.05;;;0.95;;
35188;SDS011;21762;54.480;18.556;2022-10-18T01:43:12;4.15;;;1.40;;
35188;SDS011;21762;54.480;18.556;2022-10-18T01:45:43;3.60;;;1.30;;
35188;SDS011;21762;54.480;18.556;2022-10-18T01:48:11;2.03;;;1.30;;
35188;SDS011;21762;54.480;18.556;2022-10-18T01:50:39;2.15;;;1.20;;
35188;SDS011;21762;54.480;18.556;2022-10-18T01:53:19;4.38;;;1.40;;
35188;SDS011;21762;54.480;18.556;2022-10-18T01:55:54;3.97;;;1.45;;
35188;SDS011;21762;54.480;18.556;2022-10-18T01:58:34;2.20;;;1.25;;
35188;SDS011;21762;54.480;18.556;2022-10-18T02:01:07;2.58;;;1.55;;
35188;SDS011;21762;54.480;18.556;2022-10-18T02:03:39;5.22;;;1.75;;
35188;SDS011;21762;54.480;18.556;2022-10-18T02:06:12;3.03;;;1.30;;
35188;SDS011;21762;54.480;18.556;2022-10-18T02:08:45;1.92;;;1.17;;
35188;SDS011;21762;54.480;18.556;2022-10-18T02:13:44;2.72;;;1.08;;
35188;SDS011;21762;54.480;18.556;2022-10-18T02:16:18;3.20;;;1.55;;
35188;SDS011;21762;54.480;18.556;2022-10-18T02:18:48;1.55;;;1.10;;
35188;SDS011;21762;54.480;18.556;2022-10-18T02:21:17;2.20;;;1.45;;
35188;SDS011;21762;54.480;18.556;2022-10-18T02:23:46;3.10;;;1.00;;
35188;SDS011;21762;54.480;18.556;2022-10-18T02:26:15;3.90;;;1.30;;
35188;SDS011;21762;54.480;18.556;2022-10-18T02:28:43;3.30;;;1.08;;
35188;SDS011;21762;54.480;18.556;2022-10-18T02:31:12;4.57;;;0.95;;
35188;SDS011;21762;54.480;18.556;2022-10-18T02:33:49;2.40;;;1.13;;
35188;SDS011;21762;54.480;18.556;2022-10-18T02:36:23;2.97;;;1.27;;
35188;SDS011;21762;54.480;18.556;2022-10-18T02:38:55;3.33;;;1.10;;
35188;SDS011;21762;54.480;18.556;2022-10-18T02:41:29;1.05;;;0.90;;
35188;SDS011;21762;54.480;18.556;2022-10-18T02:43:57;5.03;;;1.40;;
35188;SDS011;21762;54.480;18.556;2022-10-18T02:46:27;2.58;;;1.33;;
35188;SDS011;21762;54.480;18.556;2022-10-18T02:48:55;2.30;;;1.17;;
35188;SDS011;21762;54.480;18.556;2022-10-18T02:51:23;3.75;;;1.30;;
35188;SDS011;21762;54.480;18.556;2022-10-18T02:53:51;1.35;;;1.02;;
35188;SDS011;21762;54.480;18.556;2022-10-18T02:56:19;1.88;;;1.10;;
35188;SDS011;21762;54.480;18.556;2022-10-18T02:58:47;2.80;;;1.17;;
35188;SDS011;21762;54.480;18.556;2022-10-18T03:01:15;2.85;;;1.33;;
35188;SDS011;21762;54.480;18.556;2022-10-18T03:03:45;2.15;;;1.10;;
35188;SDS011;21762;54.480;18.556;2022-10-18T03:06:13;3.28;;;1.38;;
35188;SDS011;21762;54.480;18.556;2022-10-18T03:08:41;5.75;;;1.42;;
35188;SDS011;21762;54.480;18.556;2022-10-18T03:11:09;2.17;;;1.17;;
35188;SDS011;21762;54.480;18.556;2022-10-18T03:13:37;4.30;;;1.23;;
35188;SDS011;21762;54.480;18.556;2022-10-18T03:16:05;2.67;;;1.15;;
35188;SDS011;21762;54.480;18.556;2022-10-18T03:18:33;3.33;;;1.02;;
35188;SDS011;21762;54.480;18.556;2022-10-18T03:21:04;2.85;;;1.20;;
35188;SDS011;21762;54.480;18.556;2022-10-18T03:23:32;3.63;;;1.10;;
35188;SDS011;21762;54.480;18.556;2022-10-18T03:26:01;4.45;;;1.20;;
35188;SDS011;21762;54.480;18.556;2022-10-18T03:28:29;5.35;;;1.27;;
35188;SDS011;21762;54.480;18.556;2022-10-18T03:30:58;3.03;;;1.33;;
35188;SDS011;21762;54.480;18.556;2022-10-18T03:33:27;2.35;;;1.52;;
35188;SDS011;21762;54.480;18.556;2022-10-18T03:35:55;2.28;;;1.20;;
35188;SDS011;21762;54.480;18.556;2022-10-18T03:38:24;3.88;;;1.10;;
35188;SDS011;21762;54.480;18.556;2022-10-18T03:40:52;3.45;;;1.20;;
35188;SDS011;21762;54.480;18.556;2022-10-18T03:43:20;3.80;;;1.55;;
35188;SDS011;21762;54.480;18.556;2022-10-18T03:45:49;3.08;;;1.67;;
35188;SDS011;21762;54.480;18.556;2022-10-18T03:48:17;2.17;;;1.20;;
35188;SDS011;21762;54.480;18.556;2022-10-18T03:50:45;4.45;;;1.30;;
35188;SDS011;21762;54.480;18.556;2022-10-18T03:53:13;2.03;;;1.10;;
35188;SDS011;21762;54.480;18.556;2022-10-18T03:55:42;3.78;;;1.48;;
35188;SDS011;21762;54.480;18.556;2022-10-18T03:58:11;3.72;;;1.30;;
35188;SDS011;21762;54.480;18.556;2022-10-18T04:00:39;4.68;;;1.40;;
35188;SDS011;21762;54.480;18.556;2022-10-18T04:03:07;3.65;;;1.23;;
35188;SDS011;21762;54.480;18.556;2022-10-18T04:05:35;6.13;;;1.70;;
35188;SDS011;21762;54.480;18.556;2022-10-18T04:08:03;2.90;;;1.45;;
35188;SDS011;21762;54.480;18.556;2022-10-18T04:10:32;6.18;;;1.75;;
35188;SDS011;21762;54.480;18.556;2022-10-18T04:13:04;4.43;;;1.63;;
35188;SDS011;21762;54.480;18.556;2022-10-18T04:15:32;3.10;;;1.25;;
35188;SDS011;21762;54.480;18.556;2022-10-18T04:18:00;4.07;;;1.55;;
35188;SDS011;21762;54.480;18.556;2022-10-18T04:20:28;6.97;;;1.20;;
35188;SDS011;21762;54.480;18.556;2022-10-18T04:22:57;4.70;;;1.98;;
35188;SDS011;21762;54.480;18.556;2022-10-18T04:25:25;4.80;;;1.60;;
35188;SDS011;21762;54.480;18.556;2022-10-18T04:27:54;2.15;;;1.30;;
35188;SDS011;21762;54.480;18.556;2022-10-18T04:30:24;3.58;;;1.52;;
35188;SDS011;21762;54.480;18.556;2022-10-18T04:32:52;5.55;;;1.70;;
35188;SDS011;21762;54.480;18.556;2022-10-18T04:35:20;7.20;;;1.80;;
35188;SDS011;21762;54.480;18.556;2022-10-18T04:37:50;2.50;;;1.08;;
35188;SDS011;21762;54.480;18.556;2022-10-18T04:40:18;5.65;;;1.70;;
35188;SDS011;21762;54.480;18.556;2022-10-18T04:42:46;3.03;;;1.40;;
35188;SDS011;21762;54.480;18.556;2022-10-18T04:45:14;5.35;;;2.55;;
35188;SDS011;21762;54.480;18.556;2022-10-18T04:47:44;3.72;;;1.50;;
35188;SDS011;21762;54.480;18.556;2022-10-18T04:50:14;3.25;;;1.92;;
35188;SDS011;21762;54.480;18.556;2022-10-18T04:52:42;5.75;;;1.50;;
35188;SDS011;21762;54.480;18.556;2022-10-18T04:55:10;8.35;;;1.90;;
35188;SDS011;21762;54.480;18.556;2022-10-18T04:57:41;6.75;;;1.70;;
35188;SDS011;21762;54.480;18.556;2022-10-18T05:00:09;2.90;;;1.58;;
35188;SDS011;21762;54.480;18.556;2022-10-18T05:02:40;7.18;;;2.55;;
35188;SDS011;21762;54.480;18.556;2022-10-18T05:05:09;2.22;;;1.58;;
35188;SDS011;21762;54.480;18.556;2022-10-18T05:07:38;3.28;;;1.83;;
35188;SDS011;21762;54.480;18.556;2022-10-18T05:10:07;2.92;;;1.48;;
35188;SDS011;21762;54.480;18.556;2022-10-18T05:12:36;8.45;;;1.30;;
35188;SDS011;21762;54.480;18.556;2022-10-18T05:15:04;6.20;;;1.90;;
35188;SDS011;21762;54.480;18.556;2022-10-18T05:17:32;11.48;;;1.98;;
35188;SDS011;21762;54.480;18.556;2022-10-18T05:20:01;4.97;;;2.08;;
35188;SDS011;21762;54.480;18.556;2022-10-18T05:22:30;13.32;;;2.33;;
35188;SDS011;21762;54.480;18.556;2022-10-18T05:24:58;6.30;;;1.92;;
35188;SDS011;21762;54.480;18.556;2022-10-18T05:27:26;6.40;;;2.28;;
35188;SDS011;21762;54.480;18.556;2022-10-18T05:29:55;12.50;;;2.45;;
35188;SDS011;21762;54.480;18.556;2022-10-18T05:32:23;5.88;;;2.17;;
35188;SDS011;21762;54.480;18.556;2022-10-18T05:34:51;6.70;;;2.30;;
35188;SDS011;21762;54.480;18.556;2022-10-18T05:37:19;5.93;;;2.47;;
35188;SDS011;21762;54.480;18.556;2022-10-18T05:39:51;7.72;;;2.65;;
35188;SDS011;21762;54.480;18.556;2022-10-18T05:42:19;7.45;;;2.70;;
35188;SDS011;21762;54.480;18.556;2022-10-18T05:44:47;7.38;;;2.40;;
35188;SDS011;21762;54.480;18.556;2022-10-18T05:47:18;13.00;;;2.70;;
35188;SDS011;21762;54.480;18.556;2022-10-18T05:49:46;7.13;;;2.00;;
35188;SDS011;21762;54.480;18.556;2022-10-18T05:52:14;9.93;;;3.17;;
35188;SDS011;21762;54.480;18.556;2022-10-18T05:54:43;7.53;;;2.30;;
35188;SDS011;21762;54.480;18.556;2022-10-18T05:57:12;9.18;;;2.72;;
35188;SDS011;21762;54.480;18.556;2022-10-18T05:59:40;7.38;;;2.80;;
35188;SDS011;21762;54.480;18.556;2022-10-18T06:02:08;5.70;;;2.38;;
35188;SDS011;21762;54.480;18.556;2022-10-18T06:04:36;7.50;;;2.53;;
35188;SDS011;21762;54.480;18.556;2022-10-18T06:07:06;5.75;;;2.30;;
35188;SDS011;21762;54.480;18.556;2022-10-18T06:09:35;7.55;;;2.58;;
35188;SDS011;21762;54.480;18.556;2022-10-18T06:12:04;8.05;;;2.35;;
35188;SDS011;21762;54.480;18.556;2022-10-18T06:14:35;14.30;;;2.53;;
35188;SDS011;21762;54.480;18.556;2022-10-18T06:17:04;7.28;;;2.40;;
35188;SDS011;21762;54.480;18.556;2022-10-18T06:19:32;11.52;;;3.10;;
35188;SDS011;21762;54.480;18.556;2022-10-18T06:22:00;12.32;;;2.35;;
35188;SDS011;21762;54.480;18.556;2022-10-18T06:24:28;9.20;;;2.70;;
35188;SDS011;21762;54.480;18.556;2022-10-18T06:26:56;8.57;;;2.85;;
35188;SDS011;21762;54.480;18.556;2022-10-18T06:29:24;10.43;;;3.53;;
35188;SDS011;21762;54.480;18.556;2022-10-18T06:31:53;8.52;;;2.63;;
35188;SDS011;21762;54.480;18.556;2022-10-18T06:34:21;9.23;;;3.17;;
35188;SDS011;21762;54.480;18.556;2022-10-18T06:36:49;5.05;;;2.35;;
35188;SDS011;21762;54.480;18.556;2022-10-18T06:39:20;8.50;;;3.10;;
35188;SDS011;21762;54.480;18.556;2022-10-18T06:41:48;8.82;;;2.97;;
35188;SDS011;21762;54.480;18.556;2022-10-18T06:44:19;9.93;;;2.55;;
35188;SDS011;21762;54.480;18.556;2022-10-18T06:46:47;8.02;;;2.47;;
35188;SDS011;21762;54.480;18.556;2022-10-18T06:49:17;8.57;;;2.63;;
35188;SDS011;21762;54.480;18.556;2022-10-18T06:51:45;8.43;;;2.55;;
35188;SDS011;21762;54.480;18.556;2022-10-18T06:54:13;7.65;;;2.30;;
35188;SDS011;21762;54.480;18.556;2022-10-18T06:56:43;8.98;;;1.90;;
35188;SDS011;21762;54.480;18.556;2022-10-18T06:59:12;9.65;;;2.58;;
35188;SDS011;21762;54.480;18.556;2022-10-18T07:01:40;5.35;;;2.08;;
35188;SDS011;21762;54.480;18.556;2022-10-18T07:04:09;5.63;;;2.15;;
35188;SDS011;21762;54.480;18.556;2022-10-18T07:06:38;8.75;;;2.10;;
35188;SDS011;21762;54.480;18.556;2022-10-18T07:09:07;6.60;;;2.28;;
35188;SDS011;21762;54.480;18.556;2022-10-18T07:11:35;9.10;;;2.33;;
35188;SDS011;21762;54.480;18.556;2022-10-18T07:14:04;9.00;;;2.50;;
35188;SDS011;21762;54.480;18.556;2022-10-18T07:16:32;10.75;;;2.67;;
35188;SDS011;21762;54.480;18.556;2022-10-18T07:19:01;14.52;;;3.15;;
35188;SDS011;21762;54.480;18.556;2022-10-18T07:21:29;7.45;;;2.20;;
35188;SDS011;21762;54.480;18.556;2022-10-18T07:23:59;7.88;;;2.13;;
35188;SDS011;21762;54.480;18.556;2022-10-18T07:26:28;9.07;;;2.25;;
35188;SDS011;21762;54.480;18.556;2022-10-18T07:28:59;7.60;;;1.85;;
35188;SDS011;21762;54.480;18.556;2022-10-18T07:31:28;9.38;;;3.47;;
35188;SDS011;21762;54.480;18.556;2022-10-18T07:33:56;7.40;;;2.30;;
35188;SDS011;21762;54.480;18.556;2022-10-18T07:36:25;7.15;;;2.00;;
35188;SDS011;21762;54.480;18.556;2022-10-18T07:38:53;9.18;;;2.10;;
35188;SDS011;21762;54.480;18.556;2022-10-18T07:41:22;7.32;;;1.90;;
35188;SDS011;21762;54.480;18.556;2022-10-18T07:43:51;6.63;;;2.05;;
35188;SDS011;21762;54.480;18.556;2022-10-18T07:46:20;6.13;;;2.03;;
35188;SDS011;21762;54.480;18.556;2022-10-18T07:48:48;11.07;;;2.00;;
35188;SDS011;21762;54.480;18.556;2022-10-18T07:51:17;3.55;;;1.77;;
35188;SDS011;21762;54.480;18.556;2022-10-18T07:53:46;10.68;;;2.10;;
35188;SDS011;21762;54.480;18.556;2022-10-18T07:56:15;8.95;;;2.10;;
35188;SDS011;21762;54.480;18.556;2022-10-18T07:58:47;6.85;;;1.73;;
35188;SDS011;21762;54.480;18.556;2022-10-18T08:01:18;10.63;;;2.25;;
35188;SDS011;21762;54.480;18.556;2022-10-18T08:03:46;12.30;;;2.03;;
35188;SDS011;21762;54.480;18.556;2022-10-18T08:06:15;8.80;;;2.38;;
35188;SDS011;21762;54.480;18.556;2022-10-18T08:08:44;8.65;;;1.98;;
35188;SDS011;21762;54.480;18.556;2022-10-18T08:11:14;9.23;;;2.55;;
35188;SDS011;21762;54.480;18.556;2022-10-18T08:13:44;9.07;;;2.80;;
35188;SDS011;21762;54.480;18.556;2022-10-18T08:16:14;11.57;;;3.47;;
35188;SDS011;21762;54.480;18.556;2022-10-18T08:18:43;16.52;;;4.35;;
35188;SDS011;21762;54.480;18.556;2022-10-18T08:21:11;7.95;;;2.72;;
35188;SDS011;21762;54.480;18.556;2022-10-18T08:23:40;6.78;;;2.72;;
35188;SDS011;21762;54.480;18.556;2022-10-18T08:26:09;6.22;;;2.55;;
35188;SDS011;21762;54.480;18.556;2022-10-18T08:28:39;7.55;;;2.08;;
35188;SDS011;21762;54.480;18.556;2022-10-18T08:31:09;12.77;;;2.65;;
35188;SDS011;21762;54.480;18.556;2022-10-18T08:33:39;4.93;;;2.28;;
35188;SDS011;21762;54.480;18.556;2022-10-18T08:36:08;6.35;;;2.30;;
35188;SDS011;21762;54.480;18.556;2022-10-18T08:38:38;7.30;;;1.73;;
35188;SDS011;21762;54.480;18.556;2022-10-18T08:41:15;8.68;;;2.30;;
35188;SDS011;21762;54.480;18.556;2022-10-18T08:44:16;10.38;;;2.67;;
35188;SDS011;21762;54.480;18.556;2022-10-18T08:46:47;9.98;;;1.77;;
35188;SDS011;21762;54.480;18.556;2022-10-18T08:49:20;13.67;;;2.23;;
35188;SDS011;21762;54.480;18.556;2022-10-18T08:51:52;8.75;;;1.88;;
35188;SDS011;21762;54.480;18.556;2022-10-18T08:54:21;7.00;;;1.65;;
35188;SDS011;21762;54.480;18.556;2022-10-18T08:56:55;7.85;;;1.85;;
35188;SDS011;21762;54.480;18.556;2022-10-18T08:59:28;6.97;;;1.50;;
35188;SDS011;21762;54.480;18.556;2022-10-18T09:02:01;5.35;;;1.98;;
35188;SDS011;21762;54.480;18.556;2022-10-18T09:04:42;7.97;;;1.40;;
35188;SDS011;21762;54.480;18.556;2022-10-18T09:10:04;7.22;;;1.50;;
35188;SDS011;21762;54.480;18.556;2022-10-18T09:15:12;4.68;;;1.52;;
35188;SDS011;21762;54.480;18.556;2022-10-18T09:17:46;8.65;;;1.45;;
35188;SDS011;21762;54.480;18.556;2022-10-18T09:20:23;7.57;;;1.45;;
35188;SDS011;21762;54.480;18.556;2022-10-18T09:22:53;4.85;;;1.15;;
35188;SDS011;21762;54.480;18.556;2022-10-18T09:25:23;4.70;;;1.33;;
35188;SDS011;21762;54.480;18.556;2022-10-18T09:27:53;5.90;;;1.70;;
35188;SDS011;21762;54.480;18.556;2022-10-18T09:30:25;7.88;;;1.45;;
35188;SDS011;21762;54.480;18.556;2022-10-18T09:33:01;7.85;;;1.98;;
35188;SDS011;21762;54.480;18.556;2022-10-18T09:35:37;8.25;;;1.70;;
35188;SDS011;21762;54.480;18.556;2022-10-18T09:38:09;5.57;;;1.63;;
35188;SDS011;21762;54.480;18.556;2022-10-18T09:40:43;10.13;;;1.80;;
35188;SDS011;21762;54.480;18.556;2022-10-18T09:43:16;8.05;;;1.90;;
35188;SDS011;21762;54.480;18.556;2022-10-18T09:45:48;13.45;;;1.70;;
35188;SDS011;21762;54.480;18.556;2022-10-18T09:48:19;4.22;;;1.67;;
35188;SDS011;21762;54.480;18.556;2022-10-18T09:50:51;9.93;;;1.73;;
35188;SDS011;21762;54.480;18.556;2022-10-18T09:53:24;4.53;;;1.17;;
35188;SDS011;21762;54.480;18.556;2022-10-18T09:56:00;5.18;;;1.25;;
35188;SDS011;21762;54.480;18.556;2022-10-18T09:58:39;9.68;;;1.33;;
35188;SDS011;21762;54.480;18.556;2022-10-18T10:01:09;5.00;;;1.48;;
35188;SDS011;21762;54.480;18.556;2022-10-18T10:03:38;4.68;;;1.30;;
35188;SDS011;21762;54.480;18.556;2022-10-18T10:06:15;8.13;;;1.50;;
35188;SDS011;21762;54.480;18.556;2022-10-18T10:08:53;9.30;;;1.90;;
35188;SDS011;21762;54.480;18.556;2022-10-18T10:11:31;8.00;;;1.15;;
35188;SDS011;21762;54.480;18.556;2022-10-18T10:14:08;7.53;;;1.45;;
35188;SDS011;21762;54.480;18.556;2022-10-18T10:19:29;6.88;;;1.30;;
35188;SDS011;21762;54.480;18.556;2022-10-18T10:22:00;5.85;;;1.10;;
35188;SDS011;21762;54.480;18.556;2022-10-18T10:24:34;5.03;;;1.13;;
35188;SDS011;21762;54.480;18.556;2022-10-18T10:27:13;11.75;;;1.52;;
35188;SDS011;21762;54.480;18.556;2022-10-18T10:29:54;7.25;;;1.30;;
35188;SDS011;21762;54.480;18.556;2022-10-18T10:32:27;5.05;;;1.35;;
35188;SDS011;21762;54.480;18.556;2022-10-18T10:34:56;5.50;;;1.15;;
35188;SDS011;21762;54.480;18.556;2022-10-18T10:37:31;3.72;;;1.42;;
35188;SDS011;21762;54.480;18.556;2022-10-18T10:40:14;5.90;;;1.23;;
35188;SDS011;21762;54.480;18.556;2022-10-18T10:43:00;5.50;;;1.30;;
35188;SDS011;21762;54.480;18.556;2022-10-18T10:45:55;5.80;;;1.70;;
35188;SDS011;21762;54.480;18.556;2022-10-18T10:48:29;6.47;;;1.15;;
35188;SDS011;21762;54.480;18.556;2022-10-18T10:51:00;5.03;;;1.02;;
35188;SDS011;21762;54.480;18.556;2022-10-18T10:53:36;6.43;;;0.98;;
35188;SDS011;21762;54.480;18.556;2022-10-18T10:56:12;5.22;;;1.10;;
35188;SDS011;21762;54.480;18.556;2022-10-18T10:58:43;7.13;;;1.20;;
35188;SDS011;21762;54.480;18.556;2022-10-18T11:01:19;5.00;;;1.33;;
35188;SDS011;21762;54.480;18.556;2022-10-18T11:03:50;5.78;;;1.25;;
35188;SDS011;21762;54.480;18.556;2022-10-18T11:06:24;9.23;;;1.20;;
35188;SDS011;21762;54.480;18.556;2022-10-18T11:09:02;6.20;;;1.10;;
35188;SDS011;21762;54.480;18.556;2022-10-18T11:11:32;6.70;;;1.27;;
35188;SDS011;21762;54.480;18.556;2022-10-18T11:14:04;5.78;;;1.55;;
35188;SDS011;21762;54.480;18.556;2022-10-18T11:16:50;7.88;;;1.20;;
35188;SDS011;21762;54.480;18.556;2022-10-18T11:19:27;7.70;;;1.45;;
35188;SDS011;21762;54.480;18.556;2022-10-18T11:21:59;4.93;;;1.48;;
35188;SDS011;21762;54.480;18.556;2022-10-18T11:24:30;6.63;;;2.35;;
35188;SDS011;21762;54.480;18.556;2022-10-18T11:27:00;9.18;;;1.75;;
35188;SDS011;21762;54.480;18.556;2022-10-18T11:29:42;4.28;;;1.40;;
35188;SDS011;21762;54.480;18.556;2022-10-18T11:32:19;7.88;;;1.45;;
35188;SDS011;21762;54.480;18.556;2022-10-18T11:34:56;8.77;;;1.63;;
35188;SDS011;21762;54.480;18.556;2022-10-18T11:37:35;5.28;;;1.40;;
35188;SDS011;21762;54.480;18.556;2022-10-18T11:40:17;10.70;;;1.60;;
35188;SDS011;21762;54.480;18.556;2022-10-18T11:42:57;7.70;;;1.38;;
35188;SDS011;21762;54.480;18.556;2022-10-18T11:45:30;4.13;;;1.58;;
35188;SDS011;21762;54.480;18.556;2022-10-18T11:48:04;7.18;;;1.52;;
35188;SDS011;21762;54.480;18.556;2022-10-18T11:50:39;6.32;;;1.20;;
35188;SDS011;21762;54.480;18.556;2022-10-18T11:53:17;9.13;;;1.17;;
35188;SDS011;21762;54.480;18.556;2022-10-18T11:55:55;2.65;;;0.93;;
35188;SDS011;21762;54.480;18.556;2022-10-18T11:58:33;5.03;;;1.55;;
35188;SDS011;21762;54.480;18.556;2022-10-18T12:01:11;4.95;;;1.65;;
35188;SDS011;21762;54.480;18.556;2022-10-18T12:03:47;6.70;;;1.60;;
35188;SDS011;21762;54.480;18.556;2022-10-18T12:06:18;6.50;;;1.70;;
35188;SDS011;21762;54.480;18.556;2022-10-18T12:08:48;7.22;;;1.50;;
35188;SDS011;21762;54.480;18.556;2022-10-18T12:11:20;11.60;;;2.05;;
35188;SDS011;21762;54.480;18.556;2022-10-18T12:13:51;7.35;;;1.70;;
35188;SDS011;21762;54.480;18.556;2022-10-18T12:16:26;8.57;;;1.80;;
35188;SDS011;21762;54.480;18.556;2022-10-18T12:19:12;10.15;;;2.72;;
35188;SDS011;21762;54.480;18.556;2022-10-18T12:21:46;13.18;;;1.77;;
35188;SDS011;21762;54.480;18.556;2022-10-18T12:24:15;9.00;;;3.08;;
35188;SDS011;21762;54.480;18.556;2022-10-18T12:26:47;5.70;;;1.75;;
35188;SDS011;21762;54.480;18.556;2022-10-18T12:29:19;7.35;;;1.90;;
35188;SDS011;21762;54.480;18.556;2022-10-18T12:31:53;8.38;;;1.60;;
35188;SDS011;21762;54.480;18.556;2022-10-18T12:34:24;11.10;;;2.33;;
35188;SDS011;21762;54.480;18.556;2022-10-18T12:37:09;6.35;;;1.88;;
35188;SDS011;21762;54.480;18.556;2022-10-18T12:39:45;8.32;;;1.73;;
35188;SDS011;21762;54.480;18.556;2022-10-18T12:42:33;10.65;;;1.40;;
35188;SDS011;21762;54.480;18.556;2022-10-18T12:45:16;9.43;;;2.13;;
35188;SDS011;21762;54.480;18.556;2022-10-18T12:47:49;9.25;;;1.80;;
35188;SDS011;21762;54.480;18.556;2022-10-18T12:53:14;9.20;;;1.90;;
35188;SDS011;21762;54.480;18.556;2022-10-18T12:55:44;8.32;;;1.40;;
35188;SDS011;21762;54.480;18.556;2022-10-18T12:58:22;13.23;;;2.05;;
35188;SDS011;21762;54.480;18.556;2022-10-18T13:00:53;7.13;;;1.50;;
35188;SDS011;21762;54.480;18.556;2022-10-18T13:03:49;10.88;;;2.10;;
35188;SDS011;21762;54.480;18.556;2022-10-18T13:06:20;13.50;;;1.77;;
35188;SDS011;21762;54.480;18.556;2022-10-18T13:11:45;8.82;;;2.30;;
35188;SDS011;21762;54.480;18.556;2022-10-18T13:17:11;11.13;;;2.70;;
35188;SDS011;21762;54.480;18.556;2022-10-18T13:19:47;12.07;;;3.95;;
35188;SDS011;21762;54.480;18.556;2022-10-18T13:22:42;9.05;;;2.67;;
35188;SDS011;21762;54.480;18.556;2022-10-18T13:25:19;13.43;;;2.72;;
35188;SDS011;21762;54.480;18.556;2022-10-18T13:27:51;14.93;;;2.77;;
35188;SDS011;21762;54.480;18.556;2022-10-18T13:30:32;13.23;;;3.33;;
35188;SDS011;21762;54.480;18.556;2022-10-18T13:33:20;9.63;;;2.95;;
35188;SDS011;21762;54.480;18.556;2022-10-18T13:35:54;15.20;;;1.98;;
35188;SDS011;21762;54.480;18.556;2022-10-18T13:38:31;14.27;;;2.30;;
35188;SDS011;21762;54.480;18.556;2022-10-18T13:41:03;12.25;;;2.78;;
35188;SDS011;21762;54.480;18.556;2022-10-18T13:50:08;7.03;;;2.63;;
35188;SDS011;21762;54.480;18.556;2022-10-18T13:52:48;12.85;;;2.92;;
35188;SDS011;21762;54.480;18.556;2022-10-18T13:55:39;11.18;;;2.22;;
35188;SDS011;21762;54.480;18.556;2022-10-18T13:58:14;15.07;;;3.63;;
35188;SDS011;21762;54.480;18.556;2022-10-18T14:00:58;16.83;;;3.35;;
35188;SDS011;21762;54.480;18.556;2022-10-18T14:03:39;13.60;;;3.58;;
35188;SDS011;21762;54.480;18.556;2022-10-18T14:06:22;11.32;;;2.58;;
35188;SDS011;21762;54.480;18.556;2022-10-18T14:08:52;14.45;;;3.15;;
35188;SDS011;21762;54.480;18.556;2022-10-18T14:11:23;12.48;;;2.92;;
35188;SDS011;21762;54.480;18.556;2022-10-18T14:13:55;13.10;;;2.38;;
35188;SDS011;21762;54.480;18.556;2022-10-18T14:16:30;10.85;;;2.83;;
35188;SDS011;21762;54.480;18.556;2022-10-18T14:19:07;11.77;;;2.33;;
35188;SDS011;21762;54.480;18.556;2022-10-18T14:21:42;11.77;;;2.47;;
35188;SDS011;21762;54.480;18.556;2022-10-18T14:24:19;15.68;;;3.88;;
35188;SDS011;21762;54.480;18.556;2022-10-18T14:29:46;13.05;;;3.35;;
35188;SDS011;21762;54.480;18.556;2022-10-18T14:32:23;17.33;;;5.25;;
35188;SDS011;21762;54.480;18.556;2022-10-18T14:34:54;16.77;;;4.35;;
35188;SDS011;21762;54.480;18.556;2022-10-18T14:37:35;13.68;;;4.15;;
35188;SDS011;21762;54.480;18.556;2022-10-18T14:40:03;15.57;;;3.13;;
35188;SDS011;21762;54.480;18.556;2022-10-18T14:42:32;13.73;;;2.85;;
35188;SDS011;21762;54.480;18.556;2022-10-18T14:45:00;12.82;;;2.33;;
35188;SDS011;21762;54.480;18.556;2022-10-18T14:47:28;8.23;;;1.67;;
35188;SDS011;21762;54.480;18.556;2022-10-18T14:50:00;13.02;;;2.35;;
35188;SDS011;21762;54.480;18.556;2022-10-18T14:52:29;11.10;;;2.80;;
35188;SDS011;21762;54.480;18.556;2022-10-18T14:55:00;9.65;;;2.17;;
35188;SDS011;21762;54.480;18.556;2022-10-18T14:57:29;8.93;;;2.28;;
35188;SDS011;21762;54.480;18.556;2022-10-18T15:00:00;8.48;;;2.13;;
35188;SDS011;21762;54.480;18.556;2022-10-18T15:02:31;9.43;;;1.60;;
35188;SDS011;21762;54.480;18.556;2022-10-18T15:05:06;9.52;;;1.88;;
35188;SDS011;21762;54.480;18.556;2022-10-18T15:07:35;9.60;;;1.98;;
35188;SDS011;21762;54.480;18.556;2022-10-18T15:10:03;8.95;;;1.90;;
35188;SDS011;21762;54.480;18.556;2022-10-18T15:12:32;8.98;;;1.80;;
35188;SDS011;21762;54.480;18.556;2022-10-18T15:15:17;8.32;;;2.15;;
35188;SDS011;21762;54.480;18.556;2022-10-18T15:17:47;10.73;;;2.22;;
35188;SDS011;21762;54.480;18.556;2022-10-18T15:20:19;13.05;;;2.45;;
35188;SDS011;21762;54.480;18.556;2022-10-18T15:25:16;9.48;;;2.50;;
35188;SDS011;21762;54.480;18.556;2022-10-18T15:27:45;8.02;;;3.10;;
35188;SDS011;21762;54.480;18.556;2022-10-18T15:30:16;12.13;;;2.97;;
35188;SDS011;21762;54.480;18.556;2022-10-18T15:32:47;8.32;;;2.58;;
35188;SDS011;21762;54.480;18.556;2022-10-18T15:35:19;16.42;;;2.85;;
35188;SDS011;21762;54.480;18.556;2022-10-18T15:37:51;13.32;;;2.92;;